Terminal Aerodrome Forecast
Issued by NWS

Home | Current Version | Previous Version | Text Only | Print | Product List | Glossary Off
Versions: 1 2 3 4 5 6 7 8 9 10 11 12 13 14 15

865
FTUS43 KBIS 072332
TAFDIK
TAF
KDIK 072332Z 0800/0824 31030G43KT P6SM BKN060
     FM080400 32023G33KT P6SM SCT080
     FM081000 32015KT P6SM SCT150=

USA.gov is the U.S. government's official web portal to all federal, state and local government web resources and services.